Time,TemperatureF,DewpointF,PressureIn,WindDirection,WindDirectionDegrees,WindSpeedMPH,WindSpeedGustMPH,Humidity,HourlyPrecipIn,Conditions,Clouds,dailyrainin,SoftwareType,DateUTC
2013-03-17 00:00:00,57.9,35.0,29.78,ESE,105,0.0,0.0,42,0.00,,,0.00,VWS V14.00,2013-03-17 04:00:00,
2013-03-17 00:05:00,57.6,34.7,29.78,ESE,105,0.0,0.0,42,0.00,,,0.00,VWS V14.00,2013-03-17 04:05:00,
2013-03-17 00:10:00,57.6,34.7,29.78,ESE,105,0.0,0.0,42,0.00,,,0.00,VWS V14.00,2013-03-17 04:10:00,
2013-03-17 00:15:00,57.6,34.7,29.78,ESE,105,0.0,0.0,42,0.00,,,0.00,VWS V14.00,2013-03-17 04:15:00,
2013-03-17 00:20:00,57.6,34.7,29.78,ESE,105,0.0,0.0,42,0.00,,,0.00,VWS V14.00,2013-03-17 04:20:00,
2013-03-17 00:25:00,57.4,34.5,29.78,ESE,105,0.0,0.0,42,0.00,,,0.00,VWS V14.00,2013-03-17 04:25:00,
2013-03-17 00:30:00,57.4,34.5,29.78,ESE,105,0.0,0.0,42,0.00,,,0.00,VWS V14.00,2013-03-17 04:30:00,
2013-03-17 00:35:00,57.2,34.9,29.81,ENE,78,0.0,0.0,43,0.00,,,0.00,VWS V14.00,2013-03-17 04:35:00,
2013-03-17 00:40:00,57.2,34.9,29.81,ENE,78,0.0,0.0,43,0.00,,,0.00,VWS V14.00,2013-03-17 04:40:00,
2013-03-17 00:45:00,57.0,34.8,29.81,ENE,78,0.0,0.0,43,0.00,,,0.00,VWS V14.00,2013-03-17 04:45:00,
2013-03-17 00:50:00,56.8,34.6,29.81,ENE,78,0.0,0.0,43,0.00,,,0.00,VWS V14.00,2013-03-17 04:50:00,
2013-03-17 00:55:00,57.0,35.3,29.81,ENE,78,0.0,0.0,44,0.00,,,0.00,VWS V14.00,2013-03-17 04:55:00,
2013-03-17 01:00:00,57.2,35.5,29.81,ENE,78,0.0,0.0,44,0.00,,,0.00,VWS V14.00,2013-03-17 05:00:00,
2013-03-17 01:05:00,57.2,35.5,29.81,ENE,78,0.0,0.0,44,0.00,,,0.00,VWS V14.00,2013-03-17 05:05:00,
2013-03-17 01:10:00,57.2,34.9,29.81,ENE,78,0.0,0.0,43,0.00,,,0.00,VWS V14.00,2013-03-17 05:10:00,
2013-03-17 01:15:00,57.2,35.5,29.81,ENE,78,0.0,0.0,44,0.00,,,0.00,VWS V14.00,2013-03-17 05:15:00,
2013-03-17 01:20:00,57.2,35.5,29.81,ENE,78,0.0,0.0,44,0.00,,,0.00,VWS V14.00,2013-03-17 05:20:00,
2013-03-17 01:25:00,57.0,35.3,29.81,ENE,78,0.0,0.0,44,0.00,,,0.00,VWS V14.00,2013-03-17 05:25:00,
2013-03-17 01:30:00,56.8,35.2,29.81,ENE,78,0.0,0.0,44,0.00,,,0.00,VWS V14.00,2013-03-17 05:30:00,
2013-03-17 01:35:00,56.8,35.7,29.81,ENE,78,0.0,0.0,45,0.00,,,0.00,VWS V14.00,2013-03-17 05:35:00,
2013-03-17 01:40:00,56.7,35.0,29.81,ENE,78,0.0,0.0,44,0.00,,,0.00,VWS V14.00,2013-03-17 05:40:00,
2013-03-17 01:46:00,56.5,35.4,29.81,ENE,78,0.0,0.0,45,0.00,,,0.00,VWS V14.00,2013-03-17 05:46:00,
2013-03-17 01:51:00,56.5,36.0,29.84,ENE,78,0.0,0.0,46,0.00,,,0.00,VWS V14.00,2013-03-17 05:51:00,
2013-03-17 01:56:00,56.5,36.0,29.84,ENE,78,0.0,0.0,46,0.00,,,0.00,VWS V14.00,2013-03-17 05:56:00,
2013-03-17 02:01:00,56.7,36.1,29.84,ENE,78,0.0,0.0,46,0.00,,,0.00,VWS V14.00,2013-03-17 06:01:00,
2013-03-17 02:06:00,56.1,35.6,29.84,ENE,78,0.0,0.0,46,0.00,,,0.00,VWS V14.00,2013-03-17 06:06:00,
2013-03-17 02:11:00,55.6,35.2,29.84,ENE,78,0.0,0.0,46,0.00,,,0.00,VWS V14.00,2013-03-17 06:11:00,
2013-03-17 02:16:00,55.2,35.4,29.84,East,87,0.0,0.0,47,0.00,,,0.00,VWS V14.00,2013-03-17 06:16:00,
2013-03-17 02:21:00,54.7,34.9,29.84,SE,130,0.0,0.0,47,0.00,,,0.00,VWS V14.00,2013-03-17 06:21:00,
2013-03-17 02:26:00,54.5,35.8,29.84,ENE,77,0.0,2.7,49,0.00,,,0.00,VWS V14.00,2013-03-17 06:26:00,
2013-03-17 02:31:00,54.5,35.2,29.84,ENE,71,0.0,0.0,48,0.00,,,0.00,VWS V14.00,2013-03-17 06:31:00,
2013-03-17 02:36:00,54.5,35.2,29.84,ENE,71,0.0,0.0,48,0.00,,,0.00,VWS V14.00,2013-03-17 06:36:00,
2013-03-17 02:42:00,54.9,36.1,29.84,ENE,71,0.0,0.0,49,0.00,,,0.00,VWS V14.00,2013-03-17 06:42:00,
2013-03-17 02:47:00,55.2,36.4,29.84,ENE,71,0.0,0.0,49,0.00,,,0.00,VWS V14.00,2013-03-17 06:47:00,
2013-03-17 02:52:00,55.6,36.7,29.84,ENE,71,0.0,0.0,49,0.00,,,0.00,VWS V14.00,2013-03-17 06:52:00,
2013-03-17 02:57:00,55.6,36.2,29.84,ENE,71,0.0,0.0,48,0.00,,,0.00,VWS V14.00,2013-03-17 06:57:00,
2013-03-17 03:02:00,55.6,36.7,29.84,ENE,71,0.0,0.0,49,0.00,,,0.00,VWS V14.00,2013-03-17 07:02:00,
2013-03-17 03:07:00,55.8,36.4,29.84,ENE,71,0.0,0.0,48,0.00,,,0.00,VWS V14.00,2013-03-17 07:07:00,
2013-03-17 03:12:00,55.4,35.5,29.84,ENE,71,0.0,0.0,47,0.00,,,0.00,VWS V14.00,2013-03-17 07:12:00,
2013-03-17 03:17:00,55.0,35.7,29.84,ENE,71,0.0,0.0,48,0.00,,,0.00,VWS V14.00,2013-03-17 07:17:00,
2013-03-17 03:22:00,54.9,35.6,29.84,ENE,71,0.0,0.0,48,0.00,,,0.00,VWS V14.00,2013-03-17 07:22:00,
2013-03-17 03:27:00,54.9,35.6,29.84,ENE,71,0.0,0.0,48,0.00,,,0.00,VWS V14.00,2013-03-17 07:27:00,
2013-03-17 03:32:00,54.9,35.6,29.84,ENE,71,0.0,0.0,48,0.00,,,0.00,VWS V14.00,2013-03-17 07:32:00,
2013-03-17 03:37:00,55.0,35.7,29.84,ENE,71,0.0,0.0,48,0.00,,,0.00,VWS V14.00,2013-03-17 07:37:00,
2013-03-17 03:42:00,54.9,35.6,29.84,ENE,71,0.0,0.0,48,0.00,,,0.00,VWS V14.00,2013-03-17 07:42:00,
2013-03-17 03:47:00,54.7,35.4,29.84,ENE,71,0.0,0.0,48,0.00,,,0.00,VWS V14.00,2013-03-17 07:47:00,
2013-03-17 03:52:00,54.9,35.6,29.84,ENE,71,0.0,0.0,48,0.00,,,0.00,VWS V14.00,2013-03-17 07:52:00,
2013-03-17 03:57:00,54.9,35.6,29.84,ENE,71,0.0,0.0,48,0.00,,,0.00,VWS V14.00,2013-03-17 07:57:00,
2013-03-17 04:02:00,54.9,35.6,29.84,ENE,71,0.0,0.0,48,0.00,,,0.00,VWS V14.00,2013-03-17 08:02:00,
2013-03-17 04:07:00,54.7,34.9,29.84,ENE,71,0.0,0.0,47,0.00,,,0.00,VWS V14.00,2013-03-17 08:07:00,
2013-03-17 04:12:00,54.7,34.9,29.84,ENE,71,0.0,0.0,47,0.00,,,0.00,VWS V14.00,2013-03-17 08:12:00,
2013-03-17 04:17:00,54.7,35.4,29.84,ENE,71,0.0,0.0,48,0.00,,,0.00,VWS V14.00,2013-03-17 08:17:00,
2013-03-17 04:22:00,55.0,36.2,29.84,ENE,71,0.0,0.0,49,0.00,,,0.00,VWS V14.00,2013-03-17 08:22:00,
2013-03-17 04:27:00,55.0,36.2,29.84,ENE,71,0.0,0.0,49,0.00,,,0.00,VWS V14.00,2013-03-17 08:27:00,
2013-03-17 04:32:00,54.5,36.8,29.84,SW,231,0.0,0.0,51,0.00,,,0.00,VWS V14.00,2013-03-17 08:32:00,
2013-03-17 04:37:00,53.8,36.1,29.84,WSW,237,4.0,4.9,51,0.00,,,0.00,VWS V14.00,2013-03-17 08:37:00,
2013-03-17 04:42:00,53.1,35.9,29.84,WSW,242,3.6,3.6,52,0.00,,,0.00,VWS V14.00,2013-03-17 08:42:00,
2013-03-17 04:47:00,52.3,37.1,29.84,WSW,238,4.9,4.9,56,0.00,,,0.00,VWS V14.00,2013-03-17 08:47:00,
2013-03-17 04:52:00,52.0,38.1,29.87,WSW,239,4.9,4.9,59,0.00,,,0.00,VWS V14.00,2013-03-17 08:52:00,
2013-03-17 04:57:00,51.6,39.0,29.87,SW,235,4.9,4.9,62,0.00,,,0.00,VWS V14.00,2013-03-17 08:57:00,
2013-03-17 05:02:00,51.3,39.9,29.87,SW,235,6.3,6.3,65,0.00,,,0.00,VWS V14.00,2013-03-17 09:02:00,
2013-03-17 05:07:00,50.9,41.1,29.87,SW,235,4.9,5.4,69,0.00,,,0.00,VWS V14.00,2013-03-17 09:07:00,
2013-03-17 05:13:00,50.7,42.0,29.87,SW,231,4.9,4.9,72,0.00,,,0.00,VWS V14.00,2013-03-17 09:13:00,
2013-03-17 05:18:00,50.5,42.6,29.87,SW,233,3.1,3.6,74,0.00,,,0.00,VWS V14.00,2013-03-17 09:18:00,
2013-03-17 05:23:00,50.5,42.9,29.87,SW,229,3.6,3.6,75,0.00,,,0.00,VWS V14.00,2013-03-17 09:23:00,
2013-03-17 05:28:00,50.5,43.3,29.87,SW,225,0.0,0.0,76,0.00,,,0.00,VWS V14.00,2013-03-17 09:28:00,
2013-03-17 05:33:00,50.5,43.6,29.87,SW,232,2.7,3.6,77,0.00,,,0.00,VWS V14.00,2013-03-17 09:33:00,
2013-03-17 05:38:00,50.5,44.0,29.90,WSW,238,3.1,3.1,78,0.00,,,0.00,VWS V14.00,2013-03-17 09:38:00,
2013-03-17 05:43:00,50.5,44.6,29.90,SW,234,4.0,4.0,80,0.00,,,0.00,VWS V14.00,2013-03-17 09:43:00,
2013-03-17 05:48:00,50.5,44.9,29.90,SW,233,3.6,3.6,81,0.00,,,0.00,VWS V14.00,2013-03-17 09:48:00,
2013-03-17 05:53:00,50.7,45.4,29.90,WSW,237,4.0,4.0,82,0.00,,,0.00,VWS V14.00,2013-03-17 09:53:00,
2013-03-17 05:58:00,50.7,45.8,29.90,WSW,237,2.7,2.7,83,0.00,,,0.00,VWS V14.00,2013-03-17 09:58:00,
2013-03-17 06:03:00,50.7,45.8,29.90,WSW,237,2.2,2.7,83,0.00,,,0.00,VWS V14.00,2013-03-17 10:03:00,
2013-03-17 06:08:00,50.7,46.1,29.90,SW,231,0.0,2.7,84,0.00,,,0.00,VWS V14.00,2013-03-17 10:08:00,
2013-03-17 06:13:00,50.7,46.1,29.90,SW,236,3.6,4.0,84,0.00,,,0.00,VWS V14.00,2013-03-17 10:13:00,
2013-03-17 06:18:00,50.7,46.4,29.90,WSW,238,3.6,4.0,85,0.00,,,0.00,VWS V14.00,2013-03-17 10:18:00,
2013-03-17 06:23:00,50.7,46.4,29.90,WSW,239,3.1,4.0,85,0.00,,,0.00,VWS V14.00,2013-03-17 10:23:00,
2013-03-17 06:28:00,50.7,46.7,29.90,SW,230,2.7,3.6,86,0.00,,,0.00,VWS V14.00,2013-03-17 10:28:00,
2013-03-17 06:33:00,50.5,46.5,29.90,WSW,238,4.0,4.0,86,0.00,,,0.00,VWS V14.00,2013-03-17 10:33:00,
2013-03-17 06:38:00,50.2,46.2,29.90,SW,235,5.4,6.3,86,0.00,,,0.00,VWS V14.00,2013-03-17 10:38:00,
2013-03-17 06:43:00,49.5,45.5,29.90,SW,233,5.8,6.3,86,0.00,,,0.00,VWS V14.00,2013-03-17 10:43:00,
2013-03-17 06:48:00,49.1,45.1,29.90,SW,229,6.3,6.3,86,0.00,,,0.00,VWS V14.00,2013-03-17 10:48:00,
2013-03-17 06:53:00,48.9,44.6,29.93,WSW,241,5.8,5.8,85,0.00,,,0.00,VWS V14.00,2013-03-17 10:53:00,
2013-03-17 06:58:00,48.9,44.6,29.93,WSW,239,2.2,3.6,85,0.00,,,0.00,VWS V14.00,2013-03-17 10:58:00,
2013-03-17 07:03:00,48.7,44.1,29.93,WSW,240,4.0,4.0,84,0.00,,,0.00,VWS V14.00,2013-03-17 11:03:00,
2013-03-17 07:08:00,48.7,43.8,29.93,SW,235,2.7,4.0,83,0.00,,,0.00,VWS V14.00,2013-03-17 11:08:00,
2013-03-17 07:13:00,48.7,43.5,29.93,WSW,244,3.1,3.1,82,0.00,,,0.00,VWS V14.00,2013-03-17 11:13:00,
2013-03-17 07:18:00,48.6,42.3,29.93,WSW,238,3.1,4.9,79,0.00,,,0.00,VWS V14.00,2013-03-17 11:18:00,
2013-03-17 07:23:00,48.6,41.3,29.93,WSW,237,2.7,3.1,76,0.00,,,0.00,VWS V14.00,2013-03-17 11:23:00,
2013-03-17 07:28:00,48.6,41.0,29.93,WSW,241,2.7,3.6,75,0.00,,,0.00,VWS V14.00,2013-03-17 11:28:00,
2013-03-17 07:33:00,48.4,40.5,29.93,SW,234,3.1,4.0,74,0.00,,,0.00,VWS V14.00,2013-03-17 11:33:00,
2013-03-17 07:38:00,48.4,40.5,29.93,WSW,239,4.0,4.9,74,0.00,,,0.00,VWS V14.00,2013-03-17 11:38:00,
2013-03-17 07:43:00,48.2,40.3,29.93,SW,233,4.9,4.9,74,0.00,,,0.00,VWS V14.00,2013-03-17 11:43:00,
2013-03-17 07:48:00,48.0,40.5,29.96,SW,229,5.8,5.8,75,0.00,,,0.00,VWS V14.00,2013-03-17 11:48:00,
2013-03-17 07:53:00,48.0,40.8,29.96,SW,225,4.0,4.0,76,0.00,,,0.00,VWS V14.00,2013-03-17 11:53:00,
2013-03-17 07:58:00,47.8,41.3,29.96,SW,230,3.1,3.6,78,0.00,,,0.00,VWS V14.00,2013-03-17 11:58:00,
2013-03-17 08:03:00,47.8,41.7,29.96,WSW,237,3.1,4.0,79,0.00,,,0.00,VWS V14.00,2013-03-17 12:03:00,
2013-03-17 08:08:00,47.8,41.7,29.96,SW,234,2.2,2.7,79,0.00,,,0.00,VWS V14.00,2013-03-17 12:08:00,
2013-03-17 08:13:00,47.8,41.7,29.96,SW,231,2.2,3.6,79,0.00,,,0.00,VWS V14.00,2013-03-17 12:13:00,
2013-03-17 08:18:00,47.7,41.5,29.96,SW,226,3.1,3.1,79,0.00,,,0.00,VWS V14.00,2013-03-17 12:18:00,
2013-03-17 08:23:00,47.5,41.0,29.96,SW,229,2.7,4.0,78,0.00,,,0.00,VWS V14.00,2013-03-17 12:23:00,
2013-03-17 08:28:00,47.3,40.5,29.96,SW,232,0.0,0.0,77,0.00,,,0.00,VWS V14.00,2013-03-17 12:28:00,
2013-03-17 08:33:00,47.3,40.5,29.99,SW,231,2.2,2.7,77,0.00,,,0.00,VWS V14.00,2013-03-17 12:33:00,
2013-03-17 08:38:00,47.1,40.3,29.99,SW,235,3.1,3.6,77,0.00,,,0.00,VWS V14.00,2013-03-17 12:38:00,
2013-03-17 08:43:00,47.1,40.3,29.99,SW,234,2.7,3.6,77,0.00,,,0.00,VWS V14.00,2013-03-17 12:43:00,
2013-03-17 08:48:00,46.9,40.1,29.99,SW,235,2.7,3.1,77,0.00,,,0.00,VWS V14.00,2013-03-17 12:48:00,
2013-03-17 08:53:00,46.8,39.9,29.99,SW,233,3.1,4.0,77,0.00,,,0.00,VWS V14.00,2013-03-17 12:53:00,
2013-03-17 08:58:00,46.4,39.6,29.99,WSW,239,5.4,5.8,77,0.00,,,0.00,VWS V14.00,2013-03-17 12:58:00,
2013-03-17 09:03:00,46.4,39.6,29.99,SW,234,3.6,4.0,77,0.00,,,0.00,VWS V14.00,2013-03-17 13:03:00,
2013-03-17 09:09:00,46.4,39.9,29.99,SW,221,2.7,2.7,78,0.08,,,0.08,VWS V14.00,2013-03-17 13:09:00,
2013-03-17 09:14:00,46.2,40.1,29.99,SW,228,3.1,3.1,79,0.08,,,0.08,VWS V14.00,2013-03-17 13:14:00,
2013-03-17 09:19:00,46.0,39.6,30.02,SW,228,0.0,0.0,78,0.08,,,0.08,VWS V14.00,2013-03-17 13:19:00,
2013-03-17 09:24:00,45.9,39.4,30.02,SW,215,3.6,3.6,78,0.08,,,0.08,VWS V14.00,2013-03-17 13:24:00,
2013-03-17 09:29:00,45.7,39.2,30.02,SW,224,3.1,3.1,78,0.08,,,0.08,VWS V14.00,2013-03-17 13:29:00,
2013-03-17 09:34:00,45.5,38.7,30.02,SW,228,3.1,3.1,77,0.08,,,0.08,VWS V14.00,2013-03-17 13:34:00,
2013-03-17 09:39:00,45.3,38.5,30.02,SSW,213,3.1,3.1,77,0.08,,,0.08,VWS V14.00,2013-03-17 13:39:00,
2013-03-17 09:44:00,45.3,38.9,30.02,SW,233,4.0,4.0,78,0.08,,,0.08,VWS V14.00,2013-03-17 13:44:00,
2013-03-17 09:49:00,45.3,38.9,30.05,SW,221,2.7,2.7,78,0.08,,,0.08,VWS V14.00,2013-03-17 13:49:00,
2013-03-17 09:54:00,45.1,38.7,30.05,SSW,203,3.1,3.1,78,0.08,,,0.08,VWS V14.00,2013-03-17 13:54:00,
2013-03-17 09:59:00,44.8,38.3,30.05,SSW,208,3.6,4.9,78,0.08,,,0.08,VWS V14.00,2013-03-17 13:59:00,
2013-03-17 10:04:00,44.2,37.5,30.05,SW,227,4.9,5.4,77,0.08,,,0.08,VWS V14.00,2013-03-17 14:04:00,
2013-03-17 10:09:00,43.9,37.2,30.05,SW,230,2.7,3.6,77,0.00,,,0.08,VWS V14.00,2013-03-17 14:09:00,
2013-03-17 10:14:00,43.7,37.0,30.05,SW,230,4.9,4.9,77,0.00,,,0.08,VWS V14.00,2013-03-17 14:14:00,
2013-03-17 10:19:00,43.7,37.3,30.02,SW,236,4.0,4.0,78,0.00,,,0.08,VWS V14.00,2013-03-17 14:19:00,
2013-03-17 10:24:00,43.5,36.8,30.02,SW,230,4.9,4.9,77,0.00,,,0.08,VWS V14.00,2013-03-17 14:24:00,
2013-03-17 10:29:00,43.3,36.6,30.02,SW,224,3.1,4.0,77,0.00,,,0.08,VWS V14.00,2013-03-17 14:29:00,
2013-03-17 10:34:00,43.2,36.5,30.05,WSW,237,4.0,4.9,77,0.00,,,0.08,VWS V14.00,2013-03-17 14:34:00,
2013-03-17 10:39:00,43.0,36.3,30.05,SW,217,4.0,4.5,77,0.00,,,0.08,VWS V14.00,2013-03-17 14:39:00,
2013-03-17 10:44:00,42.8,36.1,30.05,WSW,240,4.9,6.3,77,0.00,,,0.08,VWS V14.00,2013-03-17 14:44:00,
2013-03-17 10:49:00,42.8,35.8,30.05,SW,227,6.3,6.3,76,0.00,,,0.08,VWS V14.00,2013-03-17 14:49:00,
2013-03-17 10:54:00,42.8,35.8,30.05,SW,226,4.0,5.8,76,0.00,,,0.08,VWS V14.00,2013-03-17 14:54:00,
2013-03-17 10:59:00,42.6,35.9,30.05,SW,228,5.4,5.8,77,0.00,,,0.08,VWS V14.00,2013-03-17 14:59:00,
2013-03-17 11:04:00,42.6,35.9,30.05,SW,222,5.8,5.8,77,0.00,,,0.08,VWS V14.00,2013-03-17 15:04:00,
2013-03-17 11:09:00,42.8,36.1,30.05,SW,235,2.7,2.7,77,0.00,,,0.08,VWS V14.00,2013-03-17 15:09:00,
2013-03-17 11:14:00,42.6,36.2,30.05,SW,232,4.9,5.4,78,0.00,,,0.08,VWS V14.00,2013-03-17 15:14:00,
2013-03-17 11:19:00,42.8,36.4,30.05,SW,236,4.0,5.4,78,0.00,,,0.08,VWS V14.00,2013-03-17 15:19:00,
2013-03-17 11:24:00,42.6,36.2,30.05,SW,235,4.0,4.5,78,0.00,,,0.08,VWS V14.00,2013-03-17 15:24:00,
2013-03-17 11:29:00,42.6,36.2,30.05,SW,226,3.1,5.8,78,0.00,,,0.08,VWS V14.00,2013-03-17 15:29:00,
2013-03-17 11:34:00,42.6,36.2,30.05,SW,234,3.1,5.8,78,0.00,,,0.08,VWS V14.00,2013-03-17 15:34:00,
2013-03-17 11:39:00,42.6,36.2,30.05,WSW,244,5.4,5.4,78,0.00,,,0.08,VWS V14.00,2013-03-17 15:39:00,
2013-03-17 11:44:00,42.4,36.1,30.05,SW,230,4.0,4.9,78,0.00,,,0.08,VWS V14.00,2013-03-17 15:44:00,
2013-03-17 11:49:00,42.4,36.1,30.05,SW,235,5.8,5.8,78,0.00,,,0.08,VWS V14.00,2013-03-17 15:49:00,
2013-03-17 11:54:00,42.6,36.2,30.05,SW,233,4.9,4.9,78,0.00,,,0.08,VWS V14.00,2013-03-17 15:54:00,
2013-03-17 11:59:00,42.4,36.1,30.05,SW,215,3.1,4.9,78,0.00,,,0.00,VWS V14.00,2013-03-17 15:59:00,
2013-03-17 12:04:00,42.4,36.1,30.08,SW,221,3.1,4.0,78,0.00,,,0.08,VWS V14.00,2013-03-17 16:04:00,
2013-03-17 12:09:00,42.4,35.8,30.08,SW,235,3.6,4.0,77,0.00,,,0.08,VWS V14.00,2013-03-17 16:09:00,
2013-03-17 12:14:00,42.3,35.6,30.08,WSW,249,4.9,6.3,77,0.00,,,0.08,VWS V14.00,2013-03-17 16:14:00,
2013-03-17 12:19:00,42.1,35.1,30.08,SW,230,4.0,4.0,76,0.00,,,0.08,VWS V14.00,2013-03-17 16:19:00,
2013-03-17 12:25:00,41.9,34.9,30.08,SW,223,4.9,5.8,76,0.00,,,0.08,VWS V14.00,2013-03-17 16:25:00,
2013-03-17 12:30:00,41.9,34.6,30.08,SW,217,4.9,4.9,75,0.00,,,0.08,VWS V14.00,2013-03-17 16:30:00,
2013-03-17 12:35:00,41.7,34.4,30.08,SW,235,5.8,5.8,75,0.00,,,0.08,VWS V14.00,2013-03-17 16:35:00,
2013-03-17 12:40:00,41.7,34.1,30.08,SW,225,4.9,4.9,74,0.00,,,0.08,VWS V14.00,2013-03-17 16:40:00,
2013-03-17 12:45:00,41.7,34.1,30.08,WSW,238,4.0,4.0,74,0.00,,,0.08,VWS V14.00,2013-03-17 16:45:00,
2013-03-17 12:50:00,41.7,33.7,30.08,SW,228,4.9,5.4,73,0.00,,,0.08,VWS V14.00,2013-03-17 16:50:00,
2013-03-17 12:55:00,41.9,33.9,30.08,SW,233,4.0,5.4,73,0.00,,,0.08,VWS V14.00,2013-03-17 16:55:00,
2013-03-17 13:00:00,41.9,33.9,30.08,SW,227,2.7,2.7,73,0.00,,,0.08,VWS V14.00,2013-03-17 17:00:00,
2013-03-17 13:05:00,41.7,33.4,30.08,SW,219,4.0,5.4,72,0.00,,,0.08,VWS V14.00,2013-03-17 17:05:00,
2013-03-17 13:10:00,41.7,33.4,30.08,WSW,238,3.6,4.0,72,0.00,,,0.08,VWS V14.00,2013-03-17 17:10:00,
2013-03-17 13:15:00,41.5,32.8,30.08,SW,223,2.7,4.9,71,0.00,,,0.08,VWS V14.00,2013-03-17 17:15:00,
2013-03-17 13:20:00,41.4,32.7,30.08,SW,232,5.4,5.4,71,0.00,,,0.08,VWS V14.00,2013-03-17 17:20:00,
2013-03-17 13:25:00,41.2,32.5,30.08,WSW,247,3.6,4.5,71,0.00,,,0.08,VWS V14.00,2013-03-17 17:25:00,
2013-03-17 13:30:00,41.2,32.5,30.08,SW,230,5.8,7.2,71,0.00,,,0.08,VWS V14.00,2013-03-17 17:30:00,
2013-03-17 13:35:00,41.2,32.8,30.08,SW,233,6.7,6.7,72,0.00,,,0.08,VWS V14.00,2013-03-17 17:35:00,
2013-03-17 13:40:00,41.4,33.0,30.08,SW,236,5.8,5.8,72,0.00,,,0.08,VWS V14.00,2013-03-17 17:40:00,
2013-03-17 13:45:00,41.4,32.7,30.08,SW,235,6.3,6.3,71,0.00,,,0.08,VWS V14.00,2013-03-17 17:45:00,
2013-03-17 13:50:00,41.4,32.7,30.08,SW,233,6.3,6.3,71,0.00,,,0.08,VWS V14.00,2013-03-17 17:50:00,
2013-03-17 13:55:00,41.2,32.5,30.08,WSW,237,6.3,6.3,71,0.00,,,0.08,VWS V14.00,2013-03-17 17:55:00,
2013-03-17 14:00:00,41.2,32.5,30.08,WSW,249,5.8,5.8,71,0.00,,,0.08,VWS V14.00,2013-03-17 18:00:00,
2013-03-17 14:05:00,41.2,32.8,30.05,WSW,242,4.0,4.0,72,0.00,,,0.08,VWS V14.00,2013-03-17 18:05:00,
2013-03-17 14:10:00,41.2,32.8,30.05,SW,229,3.1,4.0,72,0.00,,,0.08,VWS V14.00,2013-03-17 18:10:00,
2013-03-17 14:15:00,41.0,33.0,30.05,WSW,243,5.4,6.3,73,0.00,,,0.08,VWS V14.00,2013-03-17 18:15:00,
2013-03-17 14:20:00,41.0,33.0,30.05,WSW,244,4.9,5.4,73,0.00,,,0.08,VWS V14.00,2013-03-17 18:20:00,
2013-03-17 14:25:00,41.2,33.5,30.05,WSW,246,4.0,4.9,74,0.00,,,0.08,VWS V14.00,2013-03-17 18:25:00,
2013-03-17 14:30:00,41.4,33.4,30.05,WSW,239,2.7,3.1,73,0.00,,,0.08,VWS V14.00,2013-03-17 18:30:00,
2013-03-17 14:35:00,41.2,32.5,30.05,SW,225,5.8,5.8,71,0.00,,,0.08,VWS V14.00,2013-03-17 18:35:00,
2013-03-17 14:40:00,41.2,32.5,30.05,WSW,241,5.4,5.4,71,0.00,,,0.08,VWS V14.00,2013-03-17 18:40:00,
2013-03-17 14:45:00,41.2,32.5,30.05,SW,233,4.5,4.5,71,0.00,,,0.08,VWS V14.00,2013-03-17 18:45:00,
2013-03-17 14:50:00,41.2,32.2,30.05,WSW,245,3.6,5.4,70,0.00,,,0.08,VWS V14.00,2013-03-17 18:50:00,
2013-03-17 14:55:00,41.2,32.5,30.05,WSW,240,4.0,4.9,71,0.00,,,0.08,VWS V14.00,2013-03-17 18:55:00,
2013-03-17 15:00:00,41.2,32.2,30.05,WSW,238,3.6,5.8,70,0.00,,,0.08,VWS V14.00,2013-03-17 19:00:00,
2013-03-17 15:05:00,41.0,32.0,30.05,WSW,240,4.9,4.9,70,0.00,,,0.08,VWS V14.00,2013-03-17 19:05:00,
2013-03-17 15:10:00,41.0,32.3,30.05,WSW,239,3.1,4.0,71,0.00,,,0.08,VWS V14.00,2013-03-17 19:10:00,
2013-03-17 15:15:00,41.0,32.3,30.05,SW,231,4.5,4.5,71,0.00,,,0.08,VWS V14.00,2013-03-17 19:15:00,
2013-03-17 15:20:00,40.8,32.2,30.05,SW,224,5.4,5.4,71,0.00,,,0.08,VWS V14.00,2013-03-17 19:20:00,
2013-03-17 15:25:00,40.8,31.8,30.05,SW,233,4.0,4.0,70,0.00,,,0.08,VWS V14.00,2013-03-17 19:25:00,
2013-03-17 15:30:00,40.6,32.0,30.05,WSW,237,4.0,4.0,71,0.00,,,0.08,VWS V14.00,2013-03-17 19:30:00,
2013-03-17 15:35:00,40.6,32.0,30.05,WSW,243,4.0,4.5,71,0.00,,,0.08,VWS V14.00,2013-03-17 19:35:00,
2013-03-17 15:40:00,40.5,31.5,30.05,SW,228,3.6,4.9,70,0.00,,,0.08,VWS V14.00,2013-03-17 19:40:00,
2013-03-17 15:45:00,40.6,31.6,30.05,SW,224,3.6,5.4,70,0.00,,,0.08,VWS V14.00,2013-03-17 19:45:00,
2013-03-17 15:50:00,40.3,30.6,30.05,WSW,239,5.8,5.8,68,0.00,,,0.08,VWS V14.00,2013-03-17 19:50:00,
2013-03-17 15:55:00,40.1,30.4,30.05,SW,235,5.8,5.8,68,0.00,,,0.08,VWS V14.00,2013-03-17 19:55:00,
2013-03-17 16:00:00,40.1,30.4,30.05,SSW,212,4.9,5.8,68,0.00,,,0.08,VWS V14.00,2013-03-17 20:00:00,
2013-03-17 16:05:00,40.1,30.4,30.05,SW,219,3.1,4.0,68,0.00,,,0.08,VWS V14.00,2013-03-17 20:05:00,
2013-03-17 16:10:00,39.9,29.9,30.05,SW,234,5.4,5.4,67,0.00,,,0.08,VWS V14.00,2013-03-17 20:10:00,
2013-03-17 16:15:00,39.9,29.5,30.05,SW,224,4.9,5.8,66,0.00,,,0.08,VWS V14.00,2013-03-17 20:15:00,
2013-03-17 16:20:00,39.9,29.5,30.05,WSW,237,4.9,4.9,66,0.00,,,0.08,VWS V14.00,2013-03-17 20:20:00,
2013-03-17 16:25:00,39.9,29.1,30.05,WSW,241,4.0,7.6,65,0.00,,,0.08,VWS V14.00,2013-03-17 20:25:00,
2013-03-17 16:30:00,39.9,29.5,30.05,SW,235,3.1,4.0,66,0.00,,,0.08,VWS V14.00,2013-03-17 20:30:00,
2013-03-17 16:36:00,39.9,29.1,30.05,SW,225,4.0,4.9,65,0.00,,,0.08,VWS V14.00,2013-03-17 20:36:00,
2013-03-17 16:41:00,39.9,29.1,30.05,SW,231,4.0,4.0,65,0.00,,,0.08,VWS V14.00,2013-03-17 20:41:00,
2013-03-17 16:46:00,39.9,29.5,30.05,SW,235,3.1,3.1,66,0.00,,,0.08,VWS V14.00,2013-03-17 20:46:00,
2013-03-17 16:51:00,39.9,29.1,30.08,WSW,243,5.4,5.8,65,0.00,,,0.08,VWS V14.00,2013-03-17 20:51:00,
2013-03-17 16:56:00,39.9,29.5,30.08,SSW,211,2.7,4.0,66,0.00,,,0.08,VWS V14.00,2013-03-17 20:56:00,
2013-03-17 17:01:00,39.7,29.0,30.08,WSW,247,5.4,6.3,65,0.00,,,0.08,VWS V14.00,2013-03-17 21:01:00,
2013-03-17 17:06:00,39.6,28.8,30.08,WSW,239,6.7,6.7,65,0.00,,,0.08,VWS V14.00,2013-03-17 21:06:00,
2013-03-17 17:11:00,39.4,29.0,30.08,WSW,240,4.0,4.9,66,0.00,,,0.08,VWS V14.00,2013-03-17 21:11:00,
2013-03-17 17:16:00,39.6,29.5,30.08,WSW,241,5.4,5.4,67,0.00,,,0.08,VWS V14.00,2013-03-17 21:16:00,
2013-03-17 17:21:00,39.4,29.4,30.08,SW,235,4.5,5.4,67,0.00,,,0.08,VWS V14.00,2013-03-17 21:21:00,
2013-03-17 17:26:00,39.4,29.7,30.08,SW,220,3.6,5.4,68,0.00,,,0.08,VWS V14.00,2013-03-17 21:26:00,
2013-03-17 17:31:00,39.4,30.1,30.08,SW,224,4.0,4.9,69,0.00,,,0.08,VWS V14.00,2013-03-17 21:31:00,
2013-03-17 17:36:00,39.4,30.1,30.08,SW,226,4.5,4.9,69,0.00,,,0.08,VWS V14.00,2013-03-17 21:36:00,
2013-03-17 17:41:00,39.2,29.9,30.08,SW,227,5.4,6.3,69,0.00,,,0.08,VWS V14.00,2013-03-17 21:41:00,
2013-03-17 17:46:00,39.0,30.1,30.08,WSW,239,5.8,6.3,70,0.00,,,0.08,VWS V14.00,2013-03-17 21:46:00,
2013-03-17 17:52:00,39.0,30.1,30.08,SW,222,3.1,5.4,70,0.00,,,0.08,VWS V14.00,2013-03-17 21:52:00,
2013-03-17 17:57:00,39.0,30.1,30.08,SW,221,5.4,5.4,70,0.00,,,0.08,VWS V14.00,2013-03-17 21:57:00,
2013-03-17 18:02:00,38.8,29.9,30.08,SW,227,5.8,5.8,70,0.00,,,0.08,VWS V14.00,2013-03-17 22:02:00,
2013-03-17 18:07:00,38.8,30.3,30.08,SW,227,5.4,5.4,71,0.00,,,0.08,VWS V14.00,2013-03-17 22:07:00,
2013-03-17 18:12:00,38.8,30.3,30.08,SW,230,5.4,5.4,71,0.00,,,0.08,VWS V14.00,2013-03-17 22:12:00,
2013-03-17 18:17:00,38.8,30.3,30.08,SW,222,3.6,4.0,71,0.00,,,0.08,VWS V14.00,2013-03-17 22:17:00,
2013-03-17 18:22:00,38.8,30.3,30.08,SW,222,6.3,6.3,71,0.00,,,0.08,VWS V14.00,2013-03-17 22:22:00,
2013-03-17 18:27:00,38.7,30.1,30.08,WSW,239,5.4,5.8,71,0.00,,,0.08,VWS V14.00,2013-03-17 22:27:00,
2013-03-17 18:32:00,38.7,30.1,30.08,SW,228,4.9,5.4,71,0.00,,,0.08,VWS V14.00,2013-03-17 22:32:00,
2013-03-17 18:37:00,38.7,30.1,30.08,WSW,243,3.6,4.0,71,0.00,,,0.08,VWS V14.00,2013-03-17 22:37:00,
2013-03-17 18:43:00,38.7,30.1,30.08,SW,232,3.6,4.5,71,0.00,,,0.08,VWS V14.00,2013-03-17 22:43:00,
2013-03-17 18:47:00,38.7,30.1,30.08,WSW,238,4.0,4.0,71,0.00,,,0.08,VWS V14.00,2013-03-17 22:47:00,
2013-03-17 18:52:00,38.7,30.4,30.08,SW,226,4.9,4.9,72,0.00,,,0.08,VWS V14.00,2013-03-17 22:52:00,
2013-03-17 18:58:00,38.5,30.2,30.08,WSW,256,5.8,5.8,72,0.00,,,0.08,VWS V14.00,2013-03-17 22:58:00,
2013-03-17 19:03:00,38.5,30.2,30.08,SW,236,4.0,5.4,72,0.00,,,0.08,VWS V14.00,2013-03-17 23:03:00,
2013-03-17 19:08:00,38.5,30.2,30.08,SW,234,5.4,6.3,72,0.00,,,0.08,VWS V14.00,2013-03-17 23:08:00,
2013-03-17 19:13:00,38.5,29.9,30.08,WSW,254,5.8,5.8,71,0.00,,,0.08,VWS V14.00,2013-03-17 23:13:00,
2013-03-17 19:18:00,38.3,29.4,30.08,WSW,245,5.4,5.4,70,0.00,,,0.08,VWS V14.00,2013-03-17 23:18:00,
2013-03-17 19:23:00,38.3,29.4,30.08,SW,231,5.8,5.8,70,0.00,,,0.08,VWS V14.00,2013-03-17 23:23:00,
2013-03-17 19:28:00,38.1,29.2,30.08,SW,234,5.4,5.4,70,0.00,,,0.08,VWS V14.00,2013-03-17 23:28:00,
2013-03-17 19:33:00,38.1,28.9,30.08,WSW,245,5.4,6.3,69,0.00,,,0.08,VWS V14.00,2013-03-17 23:33:00,
2013-03-17 19:38:00,38.1,29.2,30.11,SW,234,4.5,4.9,70,0.00,,,0.08,VWS V14.00,2013-03-17 23:38:00,
2013-03-17 19:43:00,37.9,29.0,30.11,SW,234,5.8,5.8,70,0.00,,,0.08,VWS V14.00,2013-03-17 23:43:00,
2013-03-17 19:48:00,37.9,29.7,30.11,SW,235,5.4,5.8,72,0.00,,,0.08,VWS V14.00,2013-03-17 23:48:00,
2013-03-17 19:53:00,37.8,29.6,30.11,SW,232,4.9,6.3,72,0.00,,,0.08,VWS V14.00,2013-03-17 23:53:00,
2013-03-17 19:58:00,37.8,29.9,30.11,SW,236,5.4,5.4,73,0.00,,,0.08,VWS V14.00,2013-03-17 23:58:00,
2013-03-17 20:03:00,37.8,29.9,30.11,WSW,238,3.1,5.8,73,0.00,,,0.08,VWS V14.00,2013-03-18 00:03:00,
2013-03-17 20:08:00,37.6,29.7,30.11,SW,234,5.4,5.8,73,0.00,,,0.08,VWS V14.00,2013-03-18 00:08:00,
2013-03-17 20:13:00,37.6,29.7,30.11,SW,233,3.1,7.2,73,0.00,,,0.08,VWS V14.00,2013-03-18 00:13:00,
2013-03-17 20:18:00,37.6,30.1,30.11,SW,218,5.4,5.4,74,0.00,,,0.08,VWS V14.00,2013-03-18 00:18:00,
2013-03-17 20:23:00,37.6,29.7,30.14,SW,227,5.8,6.7,73,0.00,,,0.08,VWS V14.00,2013-03-18 00:23:00,
2013-03-17 20:28:00,37.6,29.4,30.14,WSW,238,5.4,5.4,72,0.00,,,0.08,VWS V14.00,2013-03-18 00:28:00,
2013-03-17 20:33:00,37.6,29.7,30.14,SW,233,5.4,5.8,73,0.00,,,0.08,VWS V14.00,2013-03-18 00:33:00,
2013-03-17 20:38:00,37.4,29.9,30.14,SW,231,5.4,5.4,74,0.00,,,0.08,VWS V14.00,2013-03-18 00:38:00,
2013-03-17 20:43:00,37.4,29.9,30.14,SW,235,5.8,6.3,74,0.00,,,0.08,VWS V14.00,2013-03-18 00:43:00,
2013-03-17 20:48:00,37.2,29.7,30.17,SW,235,4.0,6.3,74,0.00,,,0.08,VWS V14.00,2013-03-18 00:48:00,
2013-03-17 20:53:00,37.2,30.0,30.17,SW,233,4.5,4.5,75,0.00,,,0.08,VWS V14.00,2013-03-18 00:53:00,
2013-03-17 20:58:00,37.0,29.9,30.17,SW,234,5.8,5.8,75,0.00,,,0.08,VWS V14.00,2013-03-18 00:58:00,
2013-03-17 21:03:00,37.0,30.2,30.14,SW,228,5.4,5.4,76,0.00,,,0.08,VWS V14.00,2013-03-18 01:03:00,
2013-03-17 21:08:00,37.0,30.2,30.14,SW,234,2.7,4.0,76,0.00,,,0.08,VWS V14.00,2013-03-18 01:08:00,
2013-03-17 21:13:00,37.0,30.5,30.14,SW,226,3.6,3.6,77,0.00,,,0.08,VWS V14.00,2013-03-18 01:13:00,
2013-03-17 21:18:00,37.0,30.5,30.17,SW,232,4.0,4.0,77,0.00,,,0.08,VWS V14.00,2013-03-18 01:18:00,
2013-03-17 21:23:00,37.0,30.8,30.17,SW,231,4.0,5.4,78,0.00,,,0.08,VWS V14.00,2013-03-18 01:23:00,
2013-03-17 21:28:00,37.0,31.1,30.17,SW,230,4.0,4.0,79,0.00,,,0.08,VWS V14.00,2013-03-18 01:28:00,
2013-03-17 21:33:00,37.0,31.1,30.17,SW,235,4.0,4.0,79,0.00,,,0.08,VWS V14.00,2013-03-18 01:33:00,
2013-03-17 21:38:00,36.9,31.3,30.17,SW,222,3.6,3.6,80,0.00,,,0.08,VWS V14.00,2013-03-18 01:38:00,
2013-03-17 21:43:00,36.9,31.6,30.17,SW,232,4.0,4.0,81,0.00,,,0.08,VWS V14.00,2013-03-18 01:43:00,
2013-03-17 21:48:00,36.9,31.6,30.17,SW,232,3.1,4.0,81,0.00,,,0.08,VWS V14.00,2013-03-18 01:48:00,
2013-03-17 21:53:00,36.7,31.4,30.17,SW,225,4.0,4.0,81,0.00,,,0.08,VWS V14.00,2013-03-18 01:53:00,
2013-03-17 21:58:00,36.7,31.7,30.17,SW,235,2.2,4.0,82,0.00,,,0.08,VWS V14.00,2013-03-18 01:58:00,
2013-03-17 22:03:00,36.7,31.7,30.17,SW,233,3.1,4.0,82,0.00,,,0.08,VWS V14.00,2013-03-18 02:03:00,
2013-03-17 22:08:00,36.7,32.0,30.17,SW,224,3.1,3.6,83,0.00,,,0.08,VWS V14.00,2013-03-18 02:08:00,
2013-03-17 22:14:00,36.5,31.8,30.17,WSW,245,4.9,4.9,83,0.00,,,0.08,VWS V14.00,2013-03-18 02:14:00,
2013-03-17 22:19:00,36.5,31.8,30.17,SW,225,4.0,4.0,83,0.00,,,0.08,VWS V14.00,2013-03-18 02:19:00,
2013-03-17 22:24:00,36.3,31.7,30.17,SW,230,5.4,5.4,83,0.00,,,0.08,VWS V14.00,2013-03-18 02:24:00,
2013-03-17 22:29:00,36.3,31.7,30.17,SW,224,3.1,3.1,83,0.00,,,0.08,VWS V14.00,2013-03-18 02:29:00,
2013-03-17 22:34:00,36.3,31.7,30.17,SW,224,3.6,4.5,83,0.00,,,0.08,VWS V14.00,2013-03-18 02:34:00,
2013-03-17 22:39:00,36.3,32.0,30.17,SW,229,2.7,3.1,84,0.00,,,0.08,VWS V14.00,2013-03-18 02:39:00,
2013-03-17 22:44:00,36.3,32.0,30.17,WSW,237,5.4,5.4,84,0.00,,,0.08,VWS V14.00,2013-03-18 02:44:00,
2013-03-17 22:49:00,36.1,31.8,30.17,SW,234,3.6,5.8,84,0.00,,,0.08,VWS V14.00,2013-03-18 02:49:00,
2013-03-17 22:54:00,36.1,31.8,30.17,WSW,240,2.7,2.7,84,0.00,,,0.08,VWS V14.00,2013-03-18 02:54:00,
2013-03-17 22:59:00,36.1,31.8,30.17,SW,231,3.6,3.6,84,0.00,,,0.08,VWS V14.00,2013-03-18 02:59:00,
2013-03-17 23:04:00,36.1,32.1,30.17,SW,231,3.1,5.8,85,0.00,,,0.08,VWS V14.00,2013-03-18 03:04:00,
2013-03-17 23:09:00,36.1,32.1,30.17,SW,223,2.7,2.7,85,0.00,,,0.08,VWS V14.00,2013-03-18 03:09:00,
2013-03-17 23:14:00,36.1,32.1,30.17,SW,230,3.1,3.1,85,0.00,,,0.08,VWS V14.00,2013-03-18 03:14:00,
2013-03-17 23:19:00,36.1,32.1,30.17,WSW,238,4.0,4.0,85,0.00,,,0.08,VWS V14.00,2013-03-18 03:19:00,
2013-03-17 23:24:00,36.3,32.2,30.17,SW,233,3.1,3.1,85,0.00,,,0.08,VWS V14.00,2013-03-18 03:24:00,
2013-03-17 23:29:00,36.3,32.2,30.17,SW,236,0.0,2.2,85,0.00,,,0.08,VWS V14.00,2013-03-18 03:29:00,
2013-03-17 23:34:00,36.1,32.1,30.20,SW,224,3.6,4.0,85,0.00,,,0.08,VWS V14.00,2013-03-18 03:34:00,
2013-03-17 23:39:00,36.1,32.1,30.20,SW,225,3.1,3.6,85,0.00,,,0.08,VWS V14.00,2013-03-18 03:39:00,
2013-03-17 23:44:00,36.1,32.1,30.20,SW,223,3.6,4.0,85,0.00,,,0.08,VWS V14.00,2013-03-18 03:44:00,
2013-03-17 23:49:00,36.1,32.1,30.20,WSW,237,4.0,4.0,85,0.00,,,0.08,VWS V14.00,2013-03-18 03:49:00,
2013-03-17 23:54:00,36.1,32.1,30.20,SW,229,3.6,3.6,85,0.00,,,0.08,VWS V14.00,2013-03-18 03:54:00,
2013-03-17 23:59:00,36.1,32.1,30.20,SW,230,3.6,4.0,85,0.00,,,0.08,VWS V14.00,2013-03-18 03:59:00,